Motherwell, United Kingdom

5:20 AM BST on August 04, 2015 (GMT +0100)
INORTHLA26 | | Change Station
CLOSE
Current Station
Personal Weather Station
Location: Motherwell, North lanarkshire
Elevation: 279 ft
Nearby Weather Stations

Elev 279 ft 55.78 °N, 3.97 °W | Updated 36 seconds ago

Overcast
Overcast
54.3 °F
Feels Like 54.3 °F
N
0.0
Wind Variable Wind from North
Gusts 0.0 mph

Today
High -- | Low -- °F
--% Chance of Precip.
Yesterday
High -- | Low -- °F
Precip. -- in
5:25 AM 9:16 PM
Waning Gibbous, 81% visible
Pressure 29.50 in
Visibility 6.2 miles
Clouds Few 3100 ft
Mostly Cloudy 3600 ft
Overcast 4400 ft
Dew Point 53 °F
Humidity 94%
Rainfall 0.00 in
Snow Depth Not available.
UV 0 out of 12
Pollen Not available.
Air Quality Not available.
Flu Activity Not available.
METAR EGPH 040350Z 19014G24KT 9999 FEW031 BKN036 OVC044 14/09 Q0999

More Conditions Fewer Conditions

Pressure 29.50 in
Visibility 6.2 miles
Clouds Few 3100 ft
Mostly Cloudy 3600 ft
Overcast 4400 ft
Dew Point 53 °F
Humidity 94%
Rainfall 0.00 in
Snow Depth Not available.
UV 0 out of 12
Pollen Not available.
Air Quality Not available.
Flu Activity Not available.
METAR EGPH 040350Z 19014G24KT 9999 FEW031 BKN036 OVC044 14/09 Q0999

More Conditions Fewer Conditions

10-Day Weather Forecast

×

Almanac

Astronomy

Aug. 04, 2015 Rise Set
Actual Time
Civil Twilight
Nautical Twilight
Astronomical Twilight
Moon
Length of Visible Light
Length of Day
Tomorrow will be .
, % of the Moon is Illuminated

Today's Extremes

Country Highs Country Lows

Community

WunderPhotos

Upload Photos

1,843,861 photos uploaded!

WunderBlogs® & News

Nearby

Air Quality

  Air Quality AQ Index Pollutant
Not available.

Snow Depth

Station Depth Elevation

Earthquake Activity

City Distance Mag. Time & Date
Minimum magnitude displayed is 2.5.

Coastal Water Temperatures

Place Temperature

Stations

Nearby Weather Stations

Station Location Temp. Windchill Dew Point Humidity Wind Precip. Elev Updated Type